Time;durP1;ratioP1;P1;durP2;ratioP2;P2;SDS_P1;SDS_P2;PMS_P1;PMS_P2;Temp;Humidity;BMP_temperature;BMP_pressure;BME280_temperature;BME280_humidity;BME280_pressure;Samples;Min_cycle;Max_cycle;Signal;HPM_P1;HPM_P2
2022/11/30 00:00:18;;;;;;;479.50;35.33;;;7.80;99.90;;;;;;5048552;28;20415;-68
2022/11/30 00:02:44;;;;;;;267.75;16.90;;;7.90;99.90;;;;;;5028317;28;20056;-67
2022/11/30 00:05:10;;;;;;;524.88;26.85;;;7.10;99.90;;;;;;5048601;28;20045;-68
2022/11/30 00:07:36;;;;;;;645.83;30.40;;;7.70;99.90;;;;;;5042789;28;20052;-68
2022/11/30 00:10:02;;;;;;;472.85;34.20;;;7.20;99.90;;;;;;5054297;28;20044;-67
2022/11/30 00:12:28;;;;;;;343.30;24.08;;;7.20;99.90;;;;;;5053681;28;20037;-66
2022/11/30 00:14:53;;;;;;;183.18;17.63;;;8.20;99.90;;;;;;5054784;28;20048;-67
2022/11/30 00:17:19;;;;;;;289.27;27.05;;;7.50;99.90;;;;;;5052159;28;20037;-67
2022/11/30 00:19:44;;;;;;;116.07;16.02;;;8.40;99.90;;;;;;5054266;28;20076;-68
2022/11/30 00:22:10;;;;;;;540.35;46.97;;;8.20;99.90;;;;;;5037387;28;20045;-67
2022/11/30 00:24:36;;;;;;;829.92;61.05;;;8.60;99.90;;;;;;5044170;28;20539;-67
2022/11/30 00:27:01;;;;;;;828.95;63.05;;;8.60;99.90;;;;;;5048348;28;20450;-68
2022/11/30 00:29:27;;;;;;;678.50;55.88;;;8.30;99.90;;;;;;5053187;28;20055;-67
2022/11/30 00:31:52;;;;;;;176.45;27.50;;;7.80;99.90;;;;;;5053723;28;20467;-68
2022/11/30 00:34:18;;;;;;;89.13;25.15;;;8.50;99.90;;;;;;5053941;28;20405;-67
2022/11/30 00:36:43;;;;;;;62.00;18.67;;;8.50;99.90;;;;;;5045038;28;20033;-67
2022/11/30 00:39:09;;;;;;;72.40;16.85;;;8.30;99.90;;;;;;5043733;28;20479;-68
2022/11/30 00:41:34;;;;;;;43.67;17.98;;;7.60;99.90;;;;;;5048209;28;20037;-67
2022/11/30 00:44:00;;;;;;;129.00;25.02;;;8.00;99.90;;;;;;5050398;28;20029;-67
2022/11/30 00:46:26;;;;;;;270.48;24.33;;;8.60;99.90;;;;;;5052778;28;20037;-69
2022/11/30 00:48:51;;;;;;;137.85;20.88;;;7.50;99.90;;;;;;5053358;28;20088;-67
2022/11/30 00:51:18;;;;;;;227.93;21.98;;;7.60;99.90;;;;;;5036130;28;20037;-67
2022/11/30 00:53:43;;;;;;;609.17;38.72;;;8.10;99.90;;;;;;5052832;28;20117;-68
2022/11/30 00:56:09;;;;;;;112.05;17.38;;;7.90;99.90;;;;;;5049271;28;20179;-68
2022/11/30 00:58:35;;;;;;;181.48;19.38;;;7.60;99.90;;;;;;5039561;28;20072;-67
2022/11/30 01:01:00;;;;;;;99.80;17.65;;;7.90;99.90;;;;;;5053024;28;20040;-68
2022/11/30 01:03:26;;;;;;;51.03;15.35;;;7.90;99.90;;;;;;5041387;28;20472;-68
2022/11/30 01:05:51;;;;;;;89.85;15.82;;;8.50;99.90;;;;;;5036022;28;20042;-67
2022/11/30 01:08:17;;;;;;;41.58;21.77;;;8.50;99.90;;;;;;5038413;28;20406;-67
2022/11/30 01:10:43;;;;;;;33.22;18.67;;;7.80;99.90;;;;;;5058087;28;20041;-67
2022/11/30 01:13:10;;;;;;;25.10;16.75;;;8.20;99.90;;;;;;5025764;28;20437;-67
2022/11/30 01:15:39;;;;;;;25.40;16.90;;;7.90;99.90;;;;;;5057157;28;20075;-67
2022/11/30 01:18:05;;;;;;;28.98;20.00;;;7.60;99.90;;;;;;5069774;28;20076;-68
2022/11/30 01:20:31;;;;;;;30.73;19.83;;;8.50;99.90;;;;;;5043970;28;20086;-68
2022/11/30 01:22:56;;;;;;;32.15;21.48;;;8.10;99.90;;;;;;5050052;28;20490;-68
2022/11/30 01:25:22;;;;;;;40.03;23.30;;;8.00;99.90;;;;;;5049026;28;20048;-67
2022/11/30 01:27:49;;;;;;;32.17;23.52;;;8.30;99.90;;;;;;5039305;28;20041;-67
2022/11/30 01:30:15;;;;;;;33.88;22.98;;;8.50;99.90;;;;;;5041603;28;20050;-68
2022/11/30 01:32:40;;;;;;;34.85;21.25;;;9.40;99.90;;;;;;5033054;28;20388;-67
2022/11/30 01:35:07;;;;;;;34.33;23.02;;;7.70;99.90;;;;;;5032712;28;20427;-68
2022/11/30 01:37:33;;;;;;;40.28;22.63;;;8.70;99.90;;;;;;5048189;28;20083;-68
2022/11/30 01:39:59;;;;;;;31.23;20.40;;;8.90;99.90;;;;;;5052691;28;20037;-67
2022/11/30 01:42:24;;;;;;;33.22;20.20;;;8.90;99.90;;;;;;5052592;28;20483;-67
2022/11/30 01:44:55;;;;;;;40.65;22.63;;;8.50;99.90;;;;;;5052723;28;20032;-68
2022/11/30 01:47:38;;;;;;;30.33;21.13;;;8.90;99.90;;;;;;5039298;28;20037;-68
2022/11/30 01:50:11;;;;;;;37.65;23.38;;;8.90;99.90;;;;;;5035165;28;20479;-68
2022/11/30 01:52:43;;;;;;;48.35;24.77;;;8.10;99.90;;;;;;5051558;28;20052;-67
2022/11/30 01:55:17;;;;;;;43.88;24.33;;;7.90;99.90;;;;;;5051416;28;20041;-68
2022/11/30 01:57:45;;;;;;;29.63;19.52;;;8.00;99.90;;;;;;5045120;28;20083;-68
2022/11/30 02:00:12;;;;;;;24.08;18.20;;;8.90;99.90;;;;;;5051737;28;20040;-68
2022/11/30 02:02:50;;;;;;;40.00;22.88;;;8.60;99.90;;;;;;5048052;28;20036;-67
2022/11/30 02:05:17;;;;;;;40.78;23.10;;;8.30;99.90;;;;;;5031982;28;20042;-68
2022/11/30 02:07:42;;;;;;;38.28;19.23;;;9.10;99.90;;;;;;5034137;28;20045;-67
2022/11/30 02:10:16;;;;;;;30.20;19.50;;;9.00;99.90;;;;;;5033758;28;20134;-68
2022/11/30 02:12:54;;;;;;;42.45;20.05;;;8.70;99.90;;;;;;5050602;28;20045;-68
2022/11/30 02:15:25;;;;;;;24.13;15.50;;;8.10;99.90;;;;;;5050803;28;20041;-68
2022/11/30 02:18:00;;;;;;;24.02;16.10;;;9.20;99.90;;;;;;5046301;28;20064;-68
2022/11/30 02:20:41;;;;;;;18.88;13.93;;;8.40;99.90;;;;;;5051312;28;20033;-68
2022/11/30 02:23:35;;;;;;;21.75;14.00;;;8.10;99.90;;;;;;5051337;28;20091;-68
2022/11/30 02:26:31;;;;;;;20.98;13.85;;;8.30;99.90;;;;;;5050752;28;20100;-68
2022/11/30 02:29:12;;;;;;;21.95;15.13;;;8.40;99.90;;;;;;5053959;28;20103;-68
2022/11/30 02:31:49;;;;;;;22.67;15.40;;;8.20;99.90;;;;;;5043053;28;20065;-68
2022/11/30 02:34:18;;;;;;;22.45;13.63;;;9.00;99.90;;;;;;5050541;28;20465;-69
2022/11/30 02:36:44;;;;;;;21.55;14.55;;;8.30;99.90;;;;;;5049646;28;20052;-68
2022/11/30 02:39:11;;;;;;;28.23;16.05;;;8.30;99.90;;;;;;5050178;28;20041;-67
2022/11/30 02:41:40;;;;;;;31.58;17.27;;;8.60;99.90;;;;;;5042419;28;20041;-68
2022/11/30 02:44:09;;;;;;;24.67;15.75;;;8.40;99.90;;;;;;5043943;28;20041;-68
2022/11/30 02:46:55;;;;;;;31.38;18.52;;;8.30;99.90;;;;;;5049529;28;20055;-68
2022/11/30 02:49:37;;;;;;;42.40;23.10;;;8.40;99.90;;;;;;5040418;28;20042;-68
2022/11/30 02:52:05;;;;;;;47.38;24.48;;;8.40;99.90;;;;;;5034421;28;20037;-68
2022/11/30 02:54:31;;;;;;;43.47;22.52;;;9.20;99.90;;;;;;5050862;28;20049;-69
2022/11/30 02:56:57;;;;;;;31.25;17.58;;;9.00;99.90;;;;;;5068609;28;20081;-67
2022/11/30 02:59:22;;;;;;;24.42;15.70;;;9.50;99.90;;;;;;5048278;28;20107;-68
2022/11/30 03:01:48;;;;;;;23.38;15.00;;;8.90;99.90;;;;;;5048710;28;20032;-67
2022/11/30 03:04:14;;;;;;;34.95;18.80;;;8.40;99.90;;;;;;5047600;28;20033;-68
2022/11/30 03:06:39;;;;;;;25.63;14.02;;;8.40;99.90;;;;;;5034686;28;20047;-68
2022/11/30 03:09:05;;;;;;;27.30;17.58;;;8.70;99.90;;;;;;5051400;28;20037;-68
2022/11/30 03:11:30;;;;;;;29.98;18.58;;;8.40;99.90;;;;;;5050946;28;20037;-67
2022/11/30 03:13:56;;;;;;;38.03;21.13;;;8.50;99.90;;;;;;5044385;28;20049;-68
2022/11/30 03:16:21;;;;;;;36.50;21.67;;;8.40;99.90;;;;;;5041223;28;20050;-67
2022/11/30 03:18:47;;;;;;;38.80;21.73;;;9.10;99.90;;;;;;5039759;28;20060;-69
2022/11/30 03:21:12;;;;;;;37.10;21.08;;;9.90;99.90;;;;;;5028414;28;20479;-68
2022/11/30 03:23:38;;;;;;;39.55;22.15;;;8.80;99.90;;;;;;5037288;28;20094;-68
2022/11/30 03:26:05;;;;;;;29.35;16.90;;;9.90;99.90;;;;;;5023513;28;20049;-68
2022/11/30 03:28:31;;;;;;;31.73;17.20;;;9.90;99.90;;;;;;5033963;28;20085;-68
2022/11/30 03:30:56;;;;;;;34.85;19.23;;;8.60;99.90;;;;;;5048006;28;20072;-68
2022/11/30 03:33:23;;;;;;;39.20;19.65;;;8.70;99.90;;;;;;5035942;28;20071;-68
2022/11/30 03:36:03;;;;;;;34.70;19.77;;;9.70;99.90;;;;;;5047095;28;20040;-68
2022/11/30 03:38:29;;;;;;;39.28;20.10;;;9.10;99.90;;;;;;5052051;28;20033;-67
2022/11/30 03:41:13;;;;;;;36.05;20.42;;;8.60;99.90;;;;;;5047855;28;20036;-68
2022/11/30 03:43:38;;;;;;;32.53;18.27;;;9.00;99.90;;;;;;5044967;28;20037;-68
2022/11/30 03:46:05;;;;;;;32.40;19.05;;;8.80;99.90;;;;;;5042896;28;20051;-68
2022/11/30 03:48:31;;;;;;;39.70;21.33;;;9.40;99.90;;;;;;5039330;28;20043;-68
2022/11/30 03:50:57;;;;;;;39.88;22.98;;;9.50;99.90;;;;;;5034548;28;20037;-68
2022/11/30 03:53:24;;;;;;;40.50;20.25;;;8.70;99.90;;;;;;5040390;28;20044;-68
2022/11/30 03:55:57;;;;;;;37.00;20.42;;;8.80;99.90;;;;;;5047702;28;20060;-68
2022/11/30 03:58:24;;;;;;;48.55;25.90;;;9.10;99.90;;;;;;5040345;28;20036;-68
2022/11/30 04:00:57;;;;;;;53.38;27.38;;;9.10;99.90;;;;;;5042001;28;20029;-68
2022/11/30 04:03:22;;;;;;;53.70;27.77;;;10.00;99.90;;;;;;5049042;28;20091;-68
2022/11/30 04:05:48;;;;;;;55.30;27.85;;;9.60;99.90;;;;;;5048961;28;20071;-68
2022/11/30 04:08:13;;;;;;;53.17;27.95;;;10.00;99.90;;;;;;5049769;28;20037;-68
2022/11/30 04:10:39;;;;;;;58.33;27.30;;;10.10;99.90;;;;;;5049816;28;20045;-68
2022/11/30 04:13:04;;;;;;;52.53;27.85;;;8.80;99.90;;;;;;5027766;28;20512;-68
2022/11/30 04:15:30;;;;;;;52.33;28.05;;;10.20;99.90;;;;;;5047230;28;20083;-68
2022/11/30 04:17:55;;;;;;;50.38;27.30;;;10.10;99.90;;;;;;5036325;28;20045;-68
2022/11/30 04:20:21;;;;;;;47.97;27.77;;;9.10;99.90;;;;;;5049272;28;20411;-68
2022/11/30 04:22:46;;;;;;;45.38;26.90;;;9.40;99.90;;;;;;5044066;28;20461;-67
2022/11/30 04:25:12;;;;;;;50.58;28.42;;;9.10;99.90;;;;;;5026109;28;20403;-68
2022/11/30 04:27:38;;;;;;;48.05;27.70;;;9.80;99.90;;;;;;5048008;28;20518;-68
2022/11/30 04:30:04;;;;;;;52.75;29.48;;;9.10;99.90;;;;;;5033144;28;20104;-68
2022/11/30 04:32:30;;;;;;;48.35;27.65;;;9.30;99.90;;;;;;5043787;28;20544;-68
2022/11/30 04:34:56;;;;;;;48.42;28.95;;;10.30;99.90;;;;;;5048248;28;20037;-68
2022/11/30 04:37:21;;;;;;;50.45;28.23;;;9.20;99.90;;;;;;5048078;28;20037;-68
2022/11/30 04:39:47;;;;;;;46.22;27.92;;;10.10;99.90;;;;;;5049086;28;20033;-68
2022/11/30 04:42:12;;;;;;;44.83;28.42;;;9.80;99.90;;;;;;5044495;28;20033;-68
2022/11/30 04:44:38;;;;;;;46.22;28.10;;;9.20;99.90;;;;;;5049665;28;20037;-67
2022/11/30 04:47:03;;;;;;;43.58;27.27;;;9.40;99.90;;;;;;5048097;28;20083;-68
2022/11/30 04:49:29;;;;;;;48.00;27.50;;;10.50;99.90;;;;;;5044154;28;20037;-68
2022/11/30 04:51:54;;;;;;;46.00;28.38;;;9.20;99.90;;;;;;5036154;28;20041;-68
2022/11/30 04:54:20;;;;;;;44.17;26.75;;;10.60;99.90;;;;;;5033777;28;20042;-69
2022/11/30 04:56:45;;;;;;;46.63;27.02;;;9.30;99.90;;;;;;5040206;28;20103;-68
2022/11/30 04:59:11;;;;;;;49.58;26.50;;;9.30;99.90;;;;;;5049161;28;20464;-68
2022/11/30 05:01:36;;;;;;;48.47;26.33;;;9.30;99.90;;;;;;5045745;28;20033;-68
2022/11/30 05:04:02;;;;;;;42.85;25.38;;;9.60;99.90;;;;;;5033414;28;20037;-68
2022/11/30 05:06:27;;;;;;;39.80;26.00;;;9.50;99.90;;;;;;5052456;28;20033;-67
2022/11/30 05:08:53;;;;;;;43.67;27.23;;;10.50;99.90;;;;;;5053328;28;20041;-68
2022/11/30 05:11:18;;;;;;;44.55;26.42;;;10.10;99.90;;;;;;5051814;28;20522;-67
2022/11/30 05:13:44;;;;;;;41.92;26.02;;;10.50;99.90;;;;;;5034201;28;20191;-68
2022/11/30 05:16:09;;;;;;;50.42;26.98;;;9.80;99.90;;;;;;5050695;28;20071;-68
2022/11/30 05:18:35;;;;;;;46.42;27.63;;;9.30;99.90;;;;;;5044820;28;20041;-68
2022/11/30 05:21:01;;;;;;;44.47;27.48;;;9.60;99.90;;;;;;5045627;28;20041;-68
2022/11/30 05:23:27;;;;;;;45.65;25.88;;;9.70;99.90;;;;;;5050015;28;20055;-68
2022/11/30 05:25:53;;;;;;;45.50;26.92;;;9.40;99.90;;;;;;5034477;28;20098;-68
2022/11/30 05:28:19;;;;;;;49.70;26.73;;;10.30;99.90;;;;;;5051856;28;20049;-68
2022/11/30 05:30:44;;;;;;;42.20;26.63;;;10.30;99.90;;;;;;5052428;28;20037;-68
2022/11/30 05:33:10;;;;;;;46.70;26.50;;;10.40;99.90;;;;;;5052158;28;20044;-68
2022/11/30 05:35:36;;;;;;;48.80;26.65;;;10.10;99.90;;;;;;5049262;28;20290;-68
2022/11/30 05:38:02;;;;;;;41.47;26.40;;;9.50;99.90;;;;;;5037547;28;20454;-68
2022/11/30 05:40:29;;;;;;;42.33;26.42;;;9.50;99.90;;;;;;5040658;28;20541;-68
2022/11/30 05:42:59;;;;;;;42.50;25.45;;;10.20;99.90;;;;;;5050053;28;20044;-68
2022/11/30 05:45:24;;;;;;;40.90;24.60;;;10.50;99.90;;;;;;5035224;28;20448;-68
2022/11/30 05:47:50;;;;;;;45.80;25.48;;;10.40;99.90;;;;;;5051143;28;20041;-68
2022/11/30 05:50:16;;;;;;;41.38;25.05;;;9.40;99.90;;;;;;5044123;28;20043;-68
2022/11/30 05:52:41;;;;;;;46.03;25.27;;;9.50;99.90;;;;;;5040952;28;20198;-68
2022/11/30 05:55:07;;;;;;;40.00;23.77;;;10.50;99.90;;;;;;5042755;28;20041;-68
2022/11/30 05:57:37;;;;;;;42.97;25.10;;;9.40;99.90;;;;;;5051451;28;20429;-68
2022/11/30 06:00:08;;;;;;;46.75;25.95;;;10.40;99.90;;;;;;5052256;28;20040;-68
2022/11/30 06:02:33;;;;;;;41.08;24.52;;;9.40;99.90;;;;;;5037312;28;20044;-69
2022/11/30 06:04:59;;;;;;;47.00;25.95;;;10.20;99.90;;;;;;5050084;28;20029;-68
2022/11/30 06:07:25;;;;;;;42.08;24.42;;;9.20;99.90;;;;;;5046487;28;20124;-68
2022/11/30 06:09:50;;;;;;;46.22;26.17;;;9.90;99.90;;;;;;5051563;28;20076;-68
2022/11/30 06:12:16;;;;;;;47.85;26.52;;;9.70;99.90;;;;;;5024321;28;20025;-69
2022/11/30 06:14:41;;;;;;;49.65;26.45;;;9.90;99.90;;;;;;5024298;28;20041;-67
2022/11/30 06:17:07;;;;;;;42.47;26.05;;;9.30;99.90;;;;;;5034567;28;20033;-67
2022/11/30 06:19:33;;;;;;;51.80;26.08;;;9.00;99.90;;;;;;5070341;28;20512;-68
2022/11/30 06:21:58;;;;;;;46.90;25.35;;;9.10;99.90;;;;;;5047667;28;20059;-68
2022/11/30 06:24:24;;;;;;;53.92;25.63;;;9.70;99.90;;;;;;5031581;28;20041;-68
2022/11/30 06:26:49;;;;;;;59.10;26.15;;;10.00;99.90;;;;;;5018733;28;20044;-68
2022/11/30 06:29:15;;;;;;;150.40;17.90;;;9.30;99.90;;;;;;5055836;28;20033;-68
2022/11/30 06:31:40;;;;;;;54.67;21.55;;;9.00;99.90;;;;;;5038780;28;20052;-67
2022/11/30 06:34:06;;;;;;;41.97;23.75;;;9.50;99.90;;;;;;5044119;28;20044;-67
2022/11/30 06:36:32;;;;;;;62.05;24.60;;;10.00;99.90;;;;;;5041841;28;20041;-68
2022/11/30 06:38:57;;;;;;;49.92;24.48;;;9.90;99.90;;;;;;5041886;28;20037;-68
2022/11/30 06:41:23;;;;;;;64.53;21.27;;;8.80;99.90;;;;;;5040570;28;20478;-68
2022/11/30 06:43:48;;;;;;;54.90;20.85;;;9.40;99.90;;;;;;5037947;28;20036;-68
2022/11/30 06:46:14;;;;;;;52.45;23.25;;;8.80;99.90;;;;;;5059708;28;20045;-68
2022/11/30 06:48:40;;;;;;;82.57;20.90;;;8.90;99.90;;;;;;5040811;28;20033;-68
2022/11/30 06:51:07;;;;;;;44.22;19.73;;;11.10;99.90;;;;;;5029831;28;20052;-69
2022/11/30 06:53:33;;;;;;;116.53;18.13;;;8.70;99.90;;;;;;5047789;28;20503;-68
2022/11/30 06:56:03;;;;;;;105.70;19.05;;;8.80;99.90;;;;;;5036338;28;20106;-68
2022/11/30 06:58:29;;;;;;;273.33;24.95;;;9.60;99.90;;;;;;5021351;28;20045;-68
2022/11/30 07:00:54;;;;;;;249.43;24.73;;;9.50;99.90;;;;;;5037339;28;20494;-68
2022/11/30 07:03:20;;;;;;;274.60;22.80;;;9.60;99.90;;;;;;5046858;28;20033;-67
2022/11/30 07:05:45;;;;;;;1104.22;50.63;;;8.80;99.90;;;;;;5049029;28;20975;-68
2022/11/30 07:08:15;;;;;;;860.72;37.63;;;9.60;99.90;;;;;;5056646;28;20387;-68
2022/11/30 07:10:45;;;;;;;495.50;21.48;;;9.40;99.90;;;;;;5041920;28;20037;-69
2022/11/30 07:13:17;;;;;;;388.42;17.17;;;9.20;99.90;;;;;;5041735;28;20053;-70
2022/11/30 07:15:43;;;;;;;274.17;16.83;;;8.60;99.90;;;;;;5034931;28;20045;-69
2022/11/30 07:18:09;;;;;;;141.20;11.25;;;9.20;99.90;;;;;;5039339;28;20144;-69
2022/11/30 07:20:35;;;;;;;526.85;21.30;;;8.50;99.90;;;;;;5036036;28;20037;-69
2022/11/30 07:26:05;;;;;;;564.58;23.23;;;8.50;99.90;;;;;;5038570;28;20041;-69
2022/11/30 07:26:08;;;;;;;545.85;24.55;;;8.80;99.90;;;;;;5045350;28;20693;-69
2022/11/30 07:28:44;;;;;;;398.35;16.75;;;8.70;99.90;;;;;;5037410;28;20093;-69
2022/11/30 07:31:31;;;;;;;564.97;22.98;;;8.20;99.90;;;;;;5030831;28;20045;-69
2022/11/30 07:33:58;;;;;;;541.20;19.65;;;8.30;99.90;;;;;;5037952;28;20372;-69
2022/11/30 07:36:25;;;;;;;282.77;18.95;;;8.50;99.90;;;;;;5044137;28;20065;-69
2022/11/30 07:38:51;;;;;;;339.73;18.10;;;9.10;99.90;;;;;;5047195;28;20086;-69
2022/11/30 07:41:17;;;;;;;272.52;20.52;;;8.10;99.90;;;;;;5043286;28;20049;-69
2022/11/30 07:43:43;;;;;;;155.63;16.85;;;8.40;99.90;;;;;;5045417;28;20040;-68
2022/11/30 07:46:13;;;;;;;184.48;17.83;;;8.90;99.90;;;;;;5046909;28;20520;-68
2022/11/30 07:48:39;;;;;;;252.00;16.30;;;8.90;99.90;;;;;;5041766;28;20049;-68
2022/11/30 07:51:06;;;;;;;224.98;14.52;;;8.80;99.90;;;;;;5038670;28;20045;-68
2022/11/30 07:53:32;;;;;;;418.70;17.63;;;8.40;99.90;;;;;;5039697;28;20045;-68
2022/11/30 07:56:03;;;;;;;96.93;18.45;;;8.50;99.90;;;;;;5040994;28;20517;-67
2022/11/30 07:58:30;;;;;;;40.88;21.63;;;8.00;99.90;;;;;;5028737;28;20029;-68
2022/11/30 08:01:03;;;;;;;523.35;27.00;;;8.60;99.90;;;;;;5045813;28;20487;-70
2022/11/30 08:03:29;;;;;;;603.08;27.20;;;8.50;99.90;;;;;;5048134;28;20712;-69
2022/11/30 08:06:03;;;;;;;589.75;26.67;;;8.30;99.90;;;;;;5050671;28;20036;-67
2022/11/30 08:08:34;;;;;;;224.40;23.15;;;8.40;99.90;;;;;;5041724;28;20499;-69
2022/11/30 08:11:00;;;;;;;452.65;21.38;;;8.20;99.90;;;;;;5042936;28;20041;-69
2022/11/30 08:13:26;;;;;;;274.23;17.15;;;8.00;99.90;;;;;;5031613;28;20065;-70
2022/11/30 08:15:52;;;;;;;59.53;21.88;;;8.10;99.90;;;;;;5030303;28;20049;-69
2022/11/30 08:18:18;;;;;;;429.50;22.85;;;8.10;99.90;;;;;;5030644;28;20056;-69
2022/11/30 08:20:44;;;;;;;27.50;12.05;;;7.90;99.90;;;;;;5035031;28;20037;-69
2022/11/30 08:23:10;;;;;;;501.13;25.73;;;7.40;99.90;;;;;;5049988;28;20048;-69
2022/11/30 08:25:36;;;;;;;466.88;24.17;;;7.80;99.90;;;;;;5051274;28;20494;-70
2022/11/30 08:28:01;;;;;;;55.45;14.38;;;7.60;99.90;;;;;;5053677;28;20044;-69
2022/11/30 08:30:27;;;;;;;97.68;17.00;;;7.20;99.90;;;;;;5037388;28;20049;-69
2022/11/30 08:32:53;;;;;;;55.72;16.33;;;7.50;99.90;;;;;;5034168;28;20145;-69
2022/11/30 08:35:18;;;;;;;19.83;13.38;;;7.80;99.90;;;;;;5050881;28;20044;-69
2022/11/30 08:37:44;;;;;;;20.17;13.07;;;7.20;99.90;;;;;;5053239;28;20044;-69
2022/11/30 08:40:09;;;;;;;21.70;12.73;;;7.90;99.90;;;;;;5050378;28;20120;-69
2022/11/30 08:42:35;;;;;;;19.52;12.93;;;7.80;99.90;;;;;;5048049;28;20029;-69
2022/11/30 08:45:01;;;;;;;21.98;14.52;;;8.20;99.90;;;;;;5049047;28;20037;-69
2022/11/30 08:47:29;;;;;;;23.77;14.55;;;7.90;99.90;;;;;;5039002;28;20026;-69
2022/11/30 08:49:55;;;;;;;23.90;15.02;;;7.70;99.90;;;;;;5039084;28;20506;-69
2022/11/30 08:52:20;;;;;;;40.05;22.30;;;8.40;99.90;;;;;;5033374;28;20052;-69
2022/11/30 08:54:46;;;;;;;35.85;20.98;;;7.80;99.90;;;;;;5033721;28;20121;-69
2022/11/30 08:57:13;;;;;;;23.40;15.07;;;8.60;99.90;;;;;;5018866;28;20039;-69
2022/11/30 08:59:39;;;;;;;26.23;14.98;;;8.40;99.90;;;;;;5053773;28;20037;-69
2022/11/30 09:02:04;;;;;;;21.02;14.73;;;8.00;99.90;;;;;;5021823;28;20053;-69
2022/11/30 09:04:30;;;;;;;19.60;13.05;;;7.90;99.90;;;;;;5042728;28;20037;-68
2022/11/30 09:06:57;;;;;;;32.90;18.17;;;8.10;99.90;;;;;;5051846;28;20029;-69
2022/11/30 09:09:26;;;;;;;29.10;16.83;;;8.40;99.90;;;;;;5054138;28;20049;-69
2022/11/30 09:11:51;;;;;;;33.03;18.98;;;8.50;99.90;;;;;;5049734;28;20403;-69
2022/11/30 09:14:17;;;;;;;32.95;20.17;;;7.90;99.90;;;;;;5053144;28;20071;-69
2022/11/30 09:16:43;;;;;;;38.85;20.95;;;7.70;99.90;;;;;;5051939;28;20056;-69
2022/11/30 09:19:09;;;;;;;32.00;18.20;;;7.70;99.90;;;;;;5052681;28;20055;-69
2022/11/30 09:21:34;;;;;;;35.25;21.75;;;7.90;99.90;;;;;;5052557;28;20040;-69
2022/11/30 09:24:00;;;;;;;43.67;24.55;;;8.00;99.90;;;;;;5037125;28;20049;-69
2022/11/30 09:26:25;;;;;;;44.45;26.35;;;9.00;99.90;;;;;;5052952;28;20127;-69
2022/11/30 09:28:53;;;;;;;55.88;27.95;;;8.10;99.90;;;;;;5040018;28;20046;-71
2022/11/30 09:31:21;;;;;;;47.17;27.42;;;9.30;99.90;;;;;;5052792;28;20037;-69
2022/11/30 09:33:47;;;;;;;42.70;24.08;;;8.90;99.90;;;;;;5040670;28;20056;-70
2022/11/30 09:36:16;;;;;;;43.72;24.88;;;9.00;99.90;;;;;;5030961;28;20468;-70
2022/11/30 09:38:42;;;;;;;37.05;23.13;;;8.60;99.90;;;;;;5025929;28;20086;-70
2022/11/30 09:41:41;;;;;;;39.28;23.60;;;8.70;99.90;;;;;;5048671;28;20413;-71
2022/11/30 09:44:23;;;;;;;41.72;23.77;;;9.50;99.90;;;;;;5036163;28;20042;-69
2022/11/30 09:47:06;;;;;;;41.90;25.48;;;9.50;99.90;;;;;;5038708;28;20075;-69
2022/11/30 09:49:44;;;;;;;35.67;22.38;;;9.60;99.90;;;;;;5032747;28;20048;-69
2022/11/30 09:52:27;;;;;;;41.08;24.42;;;9.60;99.90;;;;;;5032533;28;20049;-69
2022/11/30 09:54:55;;;;;;;45.95;25.60;;;8.60;99.90;;;;;;5037856;28;20037;-69
2022/11/30 09:58:10;;;;;;;37.53;23.23;;;9.60;99.90;;;;;;5050455;28;20048;-70
2022/11/30 10:00:35;;;;;;;42.20;25.83;;;8.70;99.90;;;;;;5039330;28;20521;-69
2022/11/30 10:03:03;;;;;;;52.92;27.75;;;8.80;99.90;;;;;;5041717;28;20037;-70
2022/11/30 10:05:42;;;;;;;50.10;29.98;;;9.60;99.90;;;;;;5036085;28;20103;-70
2022/11/30 10:08:34;;;;;;;49.90;31.98;;;9.60;99.90;;;;;;5063621;28;20083;-70
2022/11/30 10:11:16;;;;;;;52.30;32.08;;;10.40;99.90;;;;;;5042729;28;20095;-70
2022/11/30 10:13:47;;;;;;;52.70;32.85;;;10.50;99.90;;;;;;5038672;28;20135;-70
2022/11/30 10:16:50;;;;;;;51.20;33.38;;;9.60;99.90;;;;;;5051581;28;20522;-70
2022/11/30 10:19:44;;;;;;;56.92;33.50;;;10.80;99.90;;;;;;5044229;28;20179;-69
2022/11/30 10:22:22;;;;;;;54.03;34.35;;;10.70;99.90;;;;;;5033830;28;20041;-71
2022/11/30 10:25:13;;;;;;;53.13;32.17;;;10.70;99.90;;;;;;5040796;28;20049;-70
2022/11/30 10:27:52;;;;;;;48.80;30.90;;;10.30;99.90;;;;;;5046975;28;20080;-70
2022/11/30 10:30:28;;;;;;;58.97;33.00;;;10.80;99.90;;;;;;5035551;28;20046;-70
2022/11/30 10:32:59;;;;;;;50.92;30.50;;;11.10;99.90;;;;;;5031894;28;20041;-70
2022/11/30 10:35:33;;;;;;;57.55;33.97;;;11.10;99.90;;;;;;5050316;28;20119;-70
2022/11/30 10:38:08;;;;;;;96.43;36.58;;;11.20;99.90;;;;;;5031740;28;20087;-70
2022/11/30 10:40:44;;;;;;;59.40;33.13;;;11.30;99.90;;;;;;5034584;28;20045;-70
2022/11/30 10:43:29;;;;;;;58.92;34.88;;;11.20;99.90;;;;;;5032191;28;20040;-70
2022/11/30 10:45:55;;;;;;;62.50;33.20;;;11.30;99.90;;;;;;5043791;28;20065;-70
2022/11/30 10:48:20;;;;;;;65.20;34.80;;;11.40;99.90;;;;;;5031485;28;20428;-69
2022/11/30 10:50:46;;;;;;;58.05;32.88;;;11.40;99.90;;;;;;5031654;28;20045;-69
2022/11/30 10:53:12;;;;;;;56.63;33.40;;;10.60;99.90;;;;;;5046879;28;20029;-70
2022/11/30 10:55:42;;;;;;;52.30;33.00;;;10.90;99.90;;;;;;5031410;28;20042;-70
2022/11/30 10:58:26;;;;;;;59.13;33.53;;;11.20;99.90;;;;;;5037144;28;20521;-69
2022/11/30 11:01:31;;;;;;;59.47;33.85;;;10.70;99.90;;;;;;5039124;28;20045;-70
2022/11/30 11:04:12;;;;;;;54.55;33.38;;;10.70;99.90;;;;;;5029968;28;20052;-70
2022/11/30 11:06:45;;;;;;;52.08;29.58;;;10.70;99.90;;;;;;5045561;28;20037;-69
2022/11/30 11:09:35;;;;;;;53.30;31.70;;;10.80;99.90;;;;;;5042051;28;20458;-69
2022/11/30 11:12:12;;;;;;;57.90;32.90;;;11.10;99.90;;;;;;5036092;28;20077;-70
2022/11/30 11:14:38;;;;;;;48.00;28.63;;;11.10;99.90;;;;;;5039633;28;20537;-69
2022/11/30 11:17:20;;;;;;;49.50;28.70;;;10.90;99.90;;;;;;5050509;28;20041;-69
2022/11/30 11:19:49;;;;;;;47.83;28.60;;;10.60;99.90;;;;;;5020816;28;20158;-69
2022/11/30 11:22:26;;;;;;;43.88;27.67;;;10.70;99.90;;;;;;5045198;28;20116;-68
2022/11/30 11:25:20;;;;;;;46.05;27.90;;;10.50;99.90;;;;;;5035361;28;20048;-69
2022/11/30 11:27:54;;;;;;;45.47;27.00;;;10.60;99.90;;;;;;5038164;28;20511;-69
2022/11/30 11:30:28;;;;;;;43.45;26.08;;;10.80;99.90;;;;;;5037976;28;20124;-69
2022/11/30 11:33:10;;;;;;;41.03;26.52;;;10.80;99.90;;;;;;5044027;28;20045;-69
2022/11/30 11:35:45;;;;;;;41.15;25.88;;;10.40;99.90;;;;;;5040664;28;20411;-68
2022/11/30 11:38:28;;;;;;;42.20;27.08;;;10.40;99.90;;;;;;5048236;28;20409;-68
2022/11/30 11:40:56;;;;;;;39.38;24.05;;;10.50;99.90;;;;;;5039115;28;20042;-68
2022/11/30 11:43:24;;;;;;;46.55;27.30;;;11.10;99.90;;;;;;5020694;28;20029;-68
2022/11/30 11:45:56;;;;;;;45.67;26.65;;;10.40;99.90;;;;;;5049262;28;20044;-68
2022/11/30 11:48:38;;;;;;;46.58;26.92;;;10.70;99.90;;;;;;5045301;28;20037;-69
2022/11/30 11:51:06;;;;;;;44.97;27.25;;;10.80;99.90;;;;;;5036631;28;20051;-68
2022/11/30 11:53:46;;;;;;;46.03;27.60;;;11.30;99.90;;;;;;5042785;28;20080;-68
2022/11/30 11:56:23;;;;;;;46.13;26.50;;;10.40;99.90;;;;;;5047569;28;20055;-68
2022/11/30 11:58:53;;;;;;;47.42;26.20;;;10.90;99.90;;;;;;5024235;28;20037;-68
2022/11/30 12:01:42;;;;;;;44.47;25.13;;;10.80;99.90;;;;;;5039975;28;20029;-68
2022/11/30 12:04:25;;;;;;;46.78;27.60;;;10.80;99.90;;;;;;5046664;28;20033;-69
2022/11/30 12:06:54;;;;;;;39.38;25.40;;;10.90;99.90;;;;;;5054405;28;20068;-68
2022/11/30 12:09:39;;;;;;;42.70;26.90;;;10.80;99.90;;;;;;5048822;28;20044;-68
2022/11/30 12:12:09;;;;;;;41.15;26.20;;;11.10;99.90;;;;;;5037461;28;20124;-67
2022/11/30 12:14:35;;;;;;;44.30;26.48;;;11.00;99.90;;;;;;5046104;28;20507;-67
2022/11/30 12:17:06;;;;;;;48.22;27.17;;;11.30;99.90;;;;;;5047077;28;20091;-68
2022/11/30 12:19:53;;;;;;;42.80;27.33;;;11.20;99.90;;;;;;5040323;28;20045;-68
2022/11/30 12:22:43;;;;;;;39.53;25.50;;;11.00;99.90;;;;;;5047403;28;20061;-69
2022/11/30 12:25:29;;;;;;;44.22;25.60;;;10.90;99.90;;;;;;5035918;28;21035;-63
2022/11/30 12:28:00;;;;;;;42.10;25.98;;;10.90;99.90;;;;;;5045322;28;20060;-64
2022/11/30 12:30:45;;;;;;;41.80;26.02;;;10.90;99.90;;;;;;5037886;28;20127;-63
2022/11/30 12:33:27;;;;;;;42.70;25.77;;;11.10;99.90;;;;;;5045220;28;20033;-63
2022/11/30 12:36:01;;;;;;;47.20;26.75;;;11.10;99.90;;;;;;5043304;28;20037;-63
2022/11/30 12:38:29;;;;;;;46.20;27.23;;;10.80;99.90;;;;;;5050524;28;20029;-63
2022/11/30 12:41:13;;;;;;;47.83;27.25;;;11.40;99.90;;;;;;5042359;28;20037;-63
2022/11/30 12:44:00;;;;;;;45.13;26.20;;;10.70;99.90;;;;;;5045095;28;20128;-63
2022/11/30 12:46:47;;;;;;;43.85;27.33;;;11.00;99.90;;;;;;5039578;28;20069;-63